sensor_id;sensor_type;location;lat;lon;timestamp;P1;durP1;ratioP1;P2;durP2;ratioP2
5285;SDS011;2665;53.112;7.358;2023-06-19T00:02:00;4.00;;;3.43;;
5285;SDS011;2665;53.112;7.358;2023-06-19T00:04:26;5.43;;;3.17;;
5285;SDS011;2665;53.112;7.358;2023-06-19T00:06:52;4.33;;;3.27;;
5285;SDS011;2665;53.112;7.358;2023-06-19T00:09:18;5.40;;;3.97;;
5285;SDS011;2665;53.112;7.358;2023-06-19T00:11:44;4.10;;;3.40;;
5285;SDS011;2665;53.112;7.358;2023-06-19T00:14:10;3.10;;;2.80;;
5285;SDS011;2665;53.112;7.358;2023-06-19T00:16:35;4.27;;;3.70;;
5285;SDS011;2665;53.112;7.358;2023-06-19T00:19:01;4.33;;;3.93;;
5285;SDS011;2665;53.112;7.358;2023-06-19T00:21:28;3.60;;;3.10;;
5285;SDS011;2665;53.112;7.358;2023-06-19T00:23:54;4.10;;;3.50;;
5285;SDS011;2665;53.112;7.358;2023-06-19T00:26:20;4.60;;;3.70;;
5285;SDS011;2665;53.112;7.358;2023-06-19T00:28:50;4.63;;;4.00;;
5285;SDS011;2665;53.112;7.358;2023-06-19T00:31:16;5.90;;;3.60;;
5285;SDS011;2665;53.112;7.358;2023-06-19T00:33:43;3.87;;;3.30;;
5285;SDS011;2665;53.112;7.358;2023-06-19T00:36:10;4.40;;;3.50;;
5285;SDS011;2665;53.112;7.358;2023-06-19T00:38:37;4.83;;;3.10;;
5285;SDS011;2665;53.112;7.358;2023-06-19T00:41:04;5.43;;;3.87;;
5285;SDS011;2665;53.112;7.358;2023-06-19T00:43:30;4.03;;;3.60;;
5285;SDS011;2665;53.112;7.358;2023-06-19T00:45:59;6.00;;;3.63;;
5285;SDS011;2665;53.112;7.358;2023-06-19T00:48:26;6.53;;;3.30;;
5285;SDS011;2665;53.112;7.358;2023-06-19T00:50:52;4.30;;;3.20;;
5285;SDS011;2665;53.112;7.358;2023-06-19T00:53:19;5.20;;;3.90;;
5285;SDS011;2665;53.112;7.358;2023-06-19T00:55:45;4.67;;;3.33;;
5285;SDS011;2665;53.112;7.358;2023-06-19T00:58:12;4.97;;;3.50;;
5285;SDS011;2665;53.112;7.358;2023-06-19T01:00:38;4.00;;;3.30;;
5285;SDS011;2665;53.112;7.358;2023-06-19T01:03:03;4.90;;;3.57;;
5285;SDS011;2665;53.112;7.358;2023-06-19T01:05:29;4.17;;;3.17;;
5285;SDS011;2665;53.112;7.358;2023-06-19T01:07:58;4.10;;;3.70;;
5285;SDS011;2665;53.112;7.358;2023-06-19T01:10:47;4.30;;;3.80;;
5285;SDS011;2665;53.112;7.358;2023-06-19T01:15:49;4.60;;;4.03;;
5285;SDS011;2665;53.112;7.358;2023-06-19T01:18:16;4.50;;;3.63;;
5285;SDS011;2665;53.112;7.358;2023-06-19T01:20:42;4.50;;;4.10;;
5285;SDS011;2665;53.112;7.358;2023-06-19T01:23:09;5.00;;;3.87;;
5285;SDS011;2665;53.112;7.358;2023-06-19T01:25:35;6.47;;;3.80;;
5285;SDS011;2665;53.112;7.358;2023-06-19T01:28:02;4.67;;;3.63;;
5285;SDS011;2665;53.112;7.358;2023-06-19T01:30:34;3.43;;;3.10;;
5285;SDS011;2665;53.112;7.358;2023-06-19T01:33:18;6.83;;;3.50;;
5285;SDS011;2665;53.112;7.358;2023-06-19T01:35:51;4.37;;;3.67;;
5285;SDS011;2665;53.112;7.358;2023-06-19T01:38:18;4.87;;;3.47;;
5285;SDS011;2665;53.112;7.358;2023-06-19T01:40:45;4.57;;;3.67;;
5285;SDS011;2665;53.112;7.358;2023-06-19T01:43:13;4.63;;;3.77;;
5285;SDS011;2665;53.112;7.358;2023-06-19T01:45:40;5.30;;;3.50;;
5285;SDS011;2665;53.112;7.358;2023-06-19T01:48:07;5.37;;;3.87;;
5285;SDS011;2665;53.112;7.358;2023-06-19T01:50:33;6.63;;;3.83;;
5285;SDS011;2665;53.112;7.358;2023-06-19T01:52:58;3.70;;;3.20;;
5285;SDS011;2665;53.112;7.358;2023-06-19T01:55:24;6.47;;;3.60;;
5285;SDS011;2665;53.112;7.358;2023-06-19T01:57:50;4.57;;;4.17;;
5285;SDS011;2665;53.112;7.358;2023-06-19T02:00:16;4.53;;;3.33;;
5285;SDS011;2665;53.112;7.358;2023-06-19T02:02:42;4.30;;;3.50;;
5285;SDS011;2665;53.112;7.358;2023-06-19T02:05:08;4.93;;;3.90;;
5285;SDS011;2665;53.112;7.358;2023-06-19T02:07:34;4.37;;;3.80;;
5285;SDS011;2665;53.112;7.358;2023-06-19T02:10:00;3.73;;;3.30;;
5285;SDS011;2665;53.112;7.358;2023-06-19T02:12:25;5.20;;;3.63;;
5285;SDS011;2665;53.112;7.358;2023-06-19T02:14:51;5.10;;;3.90;;
5285;SDS011;2665;53.112;7.358;2023-06-19T02:17:16;5.53;;;3.60;;
5285;SDS011;2665;53.112;7.358;2023-06-19T02:19:42;5.00;;;4.27;;
5285;SDS011;2665;53.112;7.358;2023-06-19T02:22:08;6.23;;;3.40;;
5285;SDS011;2665;53.112;7.358;2023-06-19T02:24:33;5.20;;;3.90;;
5285;SDS011;2665;53.112;7.358;2023-06-19T02:26:59;5.17;;;3.47;;
5285;SDS011;2665;53.112;7.358;2023-06-19T02:29:26;3.73;;;3.30;;
5285;SDS011;2665;53.112;7.358;2023-06-19T02:31:54;7.40;;;3.47;;
5285;SDS011;2665;53.112;7.358;2023-06-19T02:34:20;5.70;;;4.00;;
5285;SDS011;2665;53.112;7.358;2023-06-19T02:36:49;4.10;;;3.13;;
5285;SDS011;2665;53.112;7.358;2023-06-19T02:39:14;3.43;;;3.13;;
5285;SDS011;2665;53.112;7.358;2023-06-19T02:41:40;4.47;;;3.70;;
5285;SDS011;2665;53.112;7.358;2023-06-19T02:44:10;6.10;;;3.43;;
5285;SDS011;2665;53.112;7.358;2023-06-19T02:46:36;4.80;;;3.90;;
5285;SDS011;2665;53.112;7.358;2023-06-19T02:49:02;4.73;;;4.03;;
5285;SDS011;2665;53.112;7.358;2023-06-19T02:51:29;7.77;;;4.30;;
5285;SDS011;2665;53.112;7.358;2023-06-19T02:53:55;4.80;;;3.83;;
5285;SDS011;2665;53.112;7.358;2023-06-19T02:56:21;4.83;;;3.77;;
5285;SDS011;2665;53.112;7.358;2023-06-19T02:58:47;3.83;;;3.00;;
5285;SDS011;2665;53.112;7.358;2023-06-19T03:01:13;4.43;;;3.57;;
5285;SDS011;2665;53.112;7.358;2023-06-19T03:03:39;4.30;;;3.60;;
5285;SDS011;2665;53.112;7.358;2023-06-19T03:06:06;3.53;;;3.20;;
5285;SDS011;2665;53.112;7.358;2023-06-19T03:08:36;6.03;;;4.30;;
5285;SDS011;2665;53.112;7.358;2023-06-19T03:11:02;5.57;;;3.33;;
5285;SDS011;2665;53.112;7.358;2023-06-19T03:13:53;9.30;;;4.03;;
5285;SDS011;2665;53.112;7.358;2023-06-19T03:16:18;3.80;;;3.43;;
5285;SDS011;2665;53.112;7.358;2023-06-19T03:18:44;4.90;;;3.43;;
5285;SDS011;2665;53.112;7.358;2023-06-19T03:21:10;4.73;;;4.03;;
5285;SDS011;2665;53.112;7.358;2023-06-19T03:23:36;4.13;;;3.40;;
5285;SDS011;2665;53.112;7.358;2023-06-19T03:26:03;4.73;;;3.80;;
5285;SDS011;2665;53.112;7.358;2023-06-19T03:28:29;5.73;;;3.57;;
5285;SDS011;2665;53.112;7.358;2023-06-19T03:30:55;5.67;;;4.00;;
5285;SDS011;2665;53.112;7.358;2023-06-19T03:33:21;5.03;;;3.97;;
5285;SDS011;2665;53.112;7.358;2023-06-19T03:35:47;5.57;;;4.10;;
5285;SDS011;2665;53.112;7.358;2023-06-19T03:38:13;3.70;;;3.13;;
5285;SDS011;2665;53.112;7.358;2023-06-19T03:40:39;5.90;;;3.57;;
5285;SDS011;2665;53.112;7.358;2023-06-19T03:43:05;4.20;;;3.27;;
5285;SDS011;2665;53.112;7.358;2023-06-19T03:45:31;5.90;;;3.50;;
5285;SDS011;2665;53.112;7.358;2023-06-19T03:47:58;4.33;;;3.43;;
5285;SDS011;2665;53.112;7.358;2023-06-19T03:50:24;5.40;;;4.10;;
5285;SDS011;2665;53.112;7.358;2023-06-19T03:52:49;4.47;;;3.67;;
5285;SDS011;2665;53.112;7.358;2023-06-19T03:55:15;4.13;;;3.73;;
5285;SDS011;2665;53.112;7.358;2023-06-19T03:57:41;5.93;;;4.43;;
5285;SDS011;2665;53.112;7.358;2023-06-19T04:00:06;6.53;;;3.73;;
5285;SDS011;2665;53.112;7.358;2023-06-19T04:02:33;5.70;;;3.90;;
5285;SDS011;2665;53.112;7.358;2023-06-19T04:04:59;3.87;;;3.37;;
5285;SDS011;2665;53.112;7.358;2023-06-19T04:07:25;5.13;;;3.90;;
5285;SDS011;2665;53.112;7.358;2023-06-19T04:09:50;5.40;;;3.73;;
5285;SDS011;2665;53.112;7.358;2023-06-19T04:12:16;8.30;;;4.20;;
5285;SDS011;2665;53.112;7.358;2023-06-19T04:14:41;4.10;;;3.67;;
5285;SDS011;2665;53.112;7.358;2023-06-19T04:17:07;4.03;;;3.63;;
5285;SDS011;2665;53.112;7.358;2023-06-19T04:19:32;5.47;;;3.73;;
5285;SDS011;2665;53.112;7.358;2023-06-19T04:21:58;5.93;;;4.23;;
5285;SDS011;2665;53.112;7.358;2023-06-19T04:24:24;4.30;;;3.60;;
5285;SDS011;2665;53.112;7.358;2023-06-19T04:26:49;6.67;;;4.40;;
5285;SDS011;2665;53.112;7.358;2023-06-19T04:29:15;5.97;;;4.30;;
5285;SDS011;2665;53.112;7.358;2023-06-19T04:31:41;4.93;;;3.90;;
5285;SDS011;2665;53.112;7.358;2023-06-19T04:34:16;3.87;;;3.47;;
5285;SDS011;2665;53.112;7.358;2023-06-19T04:36:47;5.50;;;4.50;;
5285;SDS011;2665;53.112;7.358;2023-06-19T04:39:13;4.40;;;3.53;;
5285;SDS011;2665;53.112;7.358;2023-06-19T04:41:40;5.43;;;4.23;;
5285;SDS011;2665;53.112;7.358;2023-06-19T04:44:08;4.73;;;3.87;;
5285;SDS011;2665;53.112;7.358;2023-06-19T04:46:38;5.30;;;4.03;;
5285;SDS011;2665;53.112;7.358;2023-06-19T04:49:04;4.80;;;4.20;;
5285;SDS011;2665;53.112;7.358;2023-06-19T04:51:30;5.10;;;4.00;;
5285;SDS011;2665;53.112;7.358;2023-06-19T04:53:58;3.57;;;3.23;;
5285;SDS011;2665;53.112;7.358;2023-06-19T04:56:24;5.47;;;3.80;;
5285;SDS011;2665;53.112;7.358;2023-06-19T04:58:49;4.13;;;3.43;;
5285;SDS011;2665;53.112;7.358;2023-06-19T05:01:16;4.43;;;3.60;;
5285;SDS011;2665;53.112;7.358;2023-06-19T05:03:43;5.40;;;3.90;;
5285;SDS011;2665;53.112;7.358;2023-06-19T05:06:11;5.47;;;3.50;;
5285;SDS011;2665;53.112;7.358;2023-06-19T05:08:37;4.53;;;3.40;;
5285;SDS011;2665;53.112;7.358;2023-06-19T05:11:02;4.80;;;3.60;;
5285;SDS011;2665;53.112;7.358;2023-06-19T05:13:28;4.20;;;3.23;;
5285;SDS011;2665;53.112;7.358;2023-06-19T05:15:54;4.50;;;3.30;;
5285;SDS011;2665;53.112;7.358;2023-06-19T05:18:21;4.73;;;3.33;;
5285;SDS011;2665;53.112;7.358;2023-06-19T05:20:46;4.00;;;3.60;;
5285;SDS011;2665;53.112;7.358;2023-06-19T05:23:12;4.67;;;3.60;;
5285;SDS011;2665;53.112;7.358;2023-06-19T05:25:37;4.57;;;3.63;;
5285;SDS011;2665;53.112;7.358;2023-06-19T05:28:03;4.40;;;3.30;;
5285;SDS011;2665;53.112;7.358;2023-06-19T05:30:29;3.60;;;2.77;;
5285;SDS011;2665;53.112;7.358;2023-06-19T05:32:55;7.60;;;3.80;;
5285;SDS011;2665;53.112;7.358;2023-06-19T05:35:20;5.73;;;3.57;;
5285;SDS011;2665;53.112;7.358;2023-06-19T05:37:46;3.63;;;3.30;;
5285;SDS011;2665;53.112;7.358;2023-06-19T05:40:12;3.33;;;3.03;;
5285;SDS011;2665;53.112;7.358;2023-06-19T05:42:39;5.00;;;3.43;;
5285;SDS011;2665;53.112;7.358;2023-06-19T05:45:05;4.63;;;3.60;;
5285;SDS011;2665;53.112;7.358;2023-06-19T05:47:31;5.43;;;3.63;;
5285;SDS011;2665;53.112;7.358;2023-06-19T05:49:57;5.10;;;3.80;;
5285;SDS011;2665;53.112;7.358;2023-06-19T05:52:23;4.60;;;3.47;;
5285;SDS011;2665;53.112;7.358;2023-06-19T05:54:49;5.60;;;3.40;;
5285;SDS011;2665;53.112;7.358;2023-06-19T05:57:15;6.70;;;3.40;;
5285;SDS011;2665;53.112;7.358;2023-06-19T05:59:41;3.70;;;3.30;;
5285;SDS011;2665;53.112;7.358;2023-06-19T06:02:07;3.70;;;3.00;;
5285;SDS011;2665;53.112;7.358;2023-06-19T06:04:33;4.03;;;2.80;;
5285;SDS011;2665;53.112;7.358;2023-06-19T06:07:02;2.97;;;2.37;;
5285;SDS011;2665;53.112;7.358;2023-06-19T06:09:27;10.93;;;3.90;;
5285;SDS011;2665;53.112;7.358;2023-06-19T06:11:53;4.13;;;3.20;;
5285;SDS011;2665;53.112;7.358;2023-06-19T06:14:19;4.03;;;3.63;;
5285;SDS011;2665;53.112;7.358;2023-06-19T06:16:44;3.57;;;2.73;;
5285;SDS011;2665;53.112;7.358;2023-06-19T06:19:10;4.70;;;2.80;;
5285;SDS011;2665;53.112;7.358;2023-06-19T06:21:35;4.80;;;3.47;;
5285;SDS011;2665;53.112;7.358;2023-06-19T06:24:01;5.10;;;3.10;;
5285;SDS011;2665;53.112;7.358;2023-06-19T06:26:27;5.60;;;3.10;;
5285;SDS011;2665;53.112;7.358;2023-06-19T06:28:53;4.60;;;3.47;;
5285;SDS011;2665;53.112;7.358;2023-06-19T06:31:21;4.30;;;2.90;;
5285;SDS011;2665;53.112;7.358;2023-06-19T06:33:47;3.50;;;2.70;;
5285;SDS011;2665;53.112;7.358;2023-06-19T06:36:14;7.30;;;2.40;;
5285;SDS011;2665;53.112;7.358;2023-06-19T06:38:40;4.03;;;2.40;;
5285;SDS011;2665;53.112;7.358;2023-06-19T06:41:06;2.93;;;2.20;;
5285;SDS011;2665;53.112;7.358;2023-06-19T06:43:32;6.63;;;2.57;;
5285;SDS011;2665;53.112;7.358;2023-06-19T06:45:57;3.20;;;2.13;;
5285;SDS011;2665;53.112;7.358;2023-06-19T06:48:23;6.83;;;2.30;;
5285;SDS011;2665;53.112;7.358;2023-06-19T06:50:48;2.63;;;2.13;;
5285;SDS011;2665;53.112;7.358;2023-06-19T06:53:14;3.93;;;2.10;;
5285;SDS011;2665;53.112;7.358;2023-06-19T06:55:40;3.90;;;2.50;;
5285;SDS011;2665;53.112;7.358;2023-06-19T06:58:05;3.77;;;2.40;;
5285;SDS011;2665;53.112;7.358;2023-06-19T07:00:31;4.73;;;2.30;;
5285;SDS011;2665;53.112;7.358;2023-06-19T07:02:57;3.47;;;2.37;;
5285;SDS011;2665;53.112;7.358;2023-06-19T07:05:22;5.37;;;2.50;;
5285;SDS011;2665;53.112;7.358;2023-06-19T07:07:48;4.00;;;2.23;;
5285;SDS011;2665;53.112;7.358;2023-06-19T07:10:13;3.67;;;2.77;;
5285;SDS011;2665;53.112;7.358;2023-06-19T07:12:48;2.97;;;2.20;;
5285;SDS011;2665;53.112;7.358;2023-06-19T07:15:14;2.87;;;2.00;;
5285;SDS011;2665;53.112;7.358;2023-06-19T07:17:40;2.97;;;2.27;;
5285;SDS011;2665;53.112;7.358;2023-06-19T07:20:05;4.17;;;2.10;;
5285;SDS011;2665;53.112;7.358;2023-06-19T07:22:31;2.63;;;2.00;;
5285;SDS011;2665;53.112;7.358;2023-06-19T07:24:57;2.30;;;1.87;;
5285;SDS011;2665;53.112;7.358;2023-06-19T07:27:23;2.73;;;1.90;;
5285;SDS011;2665;53.112;7.358;2023-06-19T07:29:52;2.60;;;1.90;;
5285;SDS011;2665;53.112;7.358;2023-06-19T07:32:18;3.10;;;2.37;;
5285;SDS011;2665;53.112;7.358;2023-06-19T07:34:44;3.67;;;2.13;;
5285;SDS011;2665;53.112;7.358;2023-06-19T07:37:10;2.43;;;1.73;;
5285;SDS011;2665;53.112;7.358;2023-06-19T07:39:42;2.70;;;1.80;;
5285;SDS011;2665;53.112;7.358;2023-06-19T07:42:09;4.63;;;2.37;;
5285;SDS011;2665;53.112;7.358;2023-06-19T07:44:35;4.23;;;2.47;;
5285;SDS011;2665;53.112;7.358;2023-06-19T07:47:01;2.63;;;1.93;;
5285;SDS011;2665;53.112;7.358;2023-06-19T07:49:27;2.87;;;1.80;;
5285;SDS011;2665;53.112;7.358;2023-06-19T07:51:52;2.73;;;2.03;;
5285;SDS011;2665;53.112;7.358;2023-06-19T07:54:18;6.87;;;2.30;;
5285;SDS011;2665;53.112;7.358;2023-06-19T07:56:44;3.10;;;2.33;;
5285;SDS011;2665;53.112;7.358;2023-06-19T07:59:09;2.83;;;2.20;;
5285;SDS011;2665;53.112;7.358;2023-06-19T08:01:36;13.10;;;3.80;;
5285;SDS011;2665;53.112;7.358;2023-06-19T08:04:01;3.40;;;2.57;;
5285;SDS011;2665;53.112;7.358;2023-06-19T08:06:27;3.30;;;2.53;;
5285;SDS011;2665;53.112;7.358;2023-06-19T08:08:52;5.47;;;2.83;;
5285;SDS011;2665;53.112;7.358;2023-06-19T08:11:18;3.20;;;2.27;;
5285;SDS011;2665;53.112;7.358;2023-06-19T08:13:44;4.30;;;3.47;;
5285;SDS011;2665;53.112;7.358;2023-06-19T08:16:09;3.70;;;3.00;;
5285;SDS011;2665;53.112;7.358;2023-06-19T08:18:35;3.30;;;2.80;;
5285;SDS011;2665;53.112;7.358;2023-06-19T08:21:01;4.37;;;3.53;;
5285;SDS011;2665;53.112;7.358;2023-06-19T08:23:27;3.53;;;3.10;;
5285;SDS011;2665;53.112;7.358;2023-06-19T08:25:52;3.70;;;2.83;;
5285;SDS011;2665;53.112;7.358;2023-06-19T08:28:18;6.67;;;3.57;;
5285;SDS011;2665;53.112;7.358;2023-06-19T08:30:44;5.23;;;3.50;;
5285;SDS011;2665;53.112;7.358;2023-06-19T08:33:11;4.70;;;3.37;;
5285;SDS011;2665;53.112;7.358;2023-06-19T08:35:38;4.70;;;3.53;;
5285;SDS011;2665;53.112;7.358;2023-06-19T08:38:03;4.37;;;3.60;;
5285;SDS011;2665;53.112;7.358;2023-06-19T08:40:29;4.60;;;3.57;;
5285;SDS011;2665;53.112;7.358;2023-06-19T08:42:55;4.20;;;3.43;;
5285;SDS011;2665;53.112;7.358;2023-06-19T08:45:21;4.23;;;3.40;;
5285;SDS011;2665;53.112;7.358;2023-06-19T08:47:47;4.30;;;3.90;;
5285;SDS011;2665;53.112;7.358;2023-06-19T08:50:14;3.57;;;3.07;;
5285;SDS011;2665;53.112;7.358;2023-06-19T08:52:42;4.97;;;3.93;;
5285;SDS011;2665;53.112;7.358;2023-06-19T08:55:08;6.37;;;3.47;;
5285;SDS011;2665;53.112;7.358;2023-06-19T08:57:37;4.53;;;3.20;;
5285;SDS011;2665;53.112;7.358;2023-06-19T09:00:04;3.90;;;3.27;;
5285;SDS011;2665;53.112;7.358;2023-06-19T09:02:36;6.13;;;3.30;;
5285;SDS011;2665;53.112;7.358;2023-06-19T09:05:12;4.50;;;3.23;;
5285;SDS011;2665;53.112;7.358;2023-06-19T09:07:39;8.67;;;2.80;;
5285;SDS011;2665;53.112;7.358;2023-06-19T09:10:15;4.43;;;2.87;;
5285;SDS011;2665;53.112;7.358;2023-06-19T09:12:44;3.50;;;3.20;;
5285;SDS011;2665;53.112;7.358;2023-06-19T09:15:23;6.77;;;4.20;;
5285;SDS011;2665;53.112;7.358;2023-06-19T09:20:32;4.10;;;3.70;;
5285;SDS011;2665;53.112;7.358;2023-06-19T09:23:02;4.10;;;3.70;;
5285;SDS011;2665;53.112;7.358;2023-06-19T09:25:27;5.23;;;3.63;;
5285;SDS011;2665;53.112;7.358;2023-06-19T09:27:56;4.23;;;3.83;;
5285;SDS011;2665;53.112;7.358;2023-06-19T09:30:22;4.90;;;3.80;;
5285;SDS011;2665;53.112;7.358;2023-06-19T09:32:48;4.30;;;3.80;;
5285;SDS011;2665;53.112;7.358;2023-06-19T09:35:14;5.27;;;4.30;;
5285;SDS011;2665;53.112;7.358;2023-06-19T09:37:40;5.10;;;4.60;;
5285;SDS011;2665;53.112;7.358;2023-06-19T09:40:06;5.77;;;5.10;;
5285;SDS011;2665;53.112;7.358;2023-06-19T09:42:39;5.40;;;4.20;;
5285;SDS011;2665;53.112;7.358;2023-06-19T09:45:10;5.97;;;5.37;;
5285;SDS011;2665;53.112;7.358;2023-06-19T09:47:55;5.80;;;4.60;;
5285;SDS011;2665;53.112;7.358;2023-06-19T09:50:22;4.40;;;4.00;;
5285;SDS011;2665;53.112;7.358;2023-06-19T09:52:54;5.47;;;4.97;;
5285;SDS011;2665;53.112;7.358;2023-06-19T09:55:20;7.17;;;5.57;;
5285;SDS011;2665;53.112;7.358;2023-06-19T09:57:49;6.20;;;5.60;;
5285;SDS011;2665;53.112;7.358;2023-06-19T10:00:16;4.63;;;4.20;;
5285;SDS011;2665;53.112;7.358;2023-06-19T10:02:47;7.70;;;5.10;;
5285;SDS011;2665;53.112;7.358;2023-06-19T10:05:14;5.77;;;5.17;;
5285;SDS011;2665;53.112;7.358;2023-06-19T10:07:43;6.10;;;4.77;;
5285;SDS011;2665;53.112;7.358;2023-06-19T10:10:26;5.47;;;4.37;;
5285;SDS011;2665;53.112;7.358;2023-06-19T10:12:55;7.10;;;4.60;;
5285;SDS011;2665;53.112;7.358;2023-06-19T10:15:24;6.13;;;5.03;;
5285;SDS011;2665;53.112;7.358;2023-06-19T10:20:31;8.43;;;5.37;;
5285;SDS011;2665;53.112;7.358;2023-06-19T10:25:36;7.07;;;6.37;;
5285;SDS011;2665;53.112;7.358;2023-06-19T10:28:04;6.47;;;5.87;;
5285;SDS011;2665;53.112;7.358;2023-06-19T10:30:40;5.40;;;4.90;;
5285;SDS011;2665;53.112;7.358;2023-06-19T10:33:06;7.50;;;5.90;;
5285;SDS011;2665;53.112;7.358;2023-06-19T10:35:41;6.50;;;5.87;;
5285;SDS011;2665;53.112;7.358;2023-06-19T10:38:09;6.50;;;5.90;;
5285;SDS011;2665;53.112;7.358;2023-06-19T10:40:38;6.93;;;5.17;;
5285;SDS011;2665;53.112;7.358;2023-06-19T10:43:04;5.57;;;5.03;;
5285;SDS011;2665;53.112;7.358;2023-06-19T10:45:30;4.70;;;3.80;;
5285;SDS011;2665;53.112;7.358;2023-06-19T10:47:55;3.77;;;3.30;;
5285;SDS011;2665;53.112;7.358;2023-06-19T10:50:21;6.00;;;3.83;;
5285;SDS011;2665;53.112;7.358;2023-06-19T10:52:48;3.80;;;3.03;;
5285;SDS011;2665;53.112;7.358;2023-06-19T10:55:17;3.23;;;2.70;;
5285;SDS011;2665;53.112;7.358;2023-06-19T10:57:46;3.33;;;3.03;;
5285;SDS011;2665;53.112;7.358;2023-06-19T11:00:26;4.23;;;3.40;;
5285;SDS011;2665;53.112;7.358;2023-06-19T11:02:53;5.10;;;3.30;;
5285;SDS011;2665;53.112;7.358;2023-06-19T11:05:20;8.30;;;3.00;;
5285;SDS011;2665;53.112;7.358;2023-06-19T11:10:24;4.87;;;3.60;;
5285;SDS011;2665;53.112;7.358;2023-06-19T11:12:55;3.93;;;2.80;;
5285;SDS011;2665;53.112;7.358;2023-06-19T11:15:32;5.67;;;3.33;;
5285;SDS011;2665;53.112;7.358;2023-06-19T11:17:59;4.80;;;3.03;;
5285;SDS011;2665;53.112;7.358;2023-06-19T11:20:27;4.90;;;3.43;;
5285;SDS011;2665;53.112;7.358;2023-06-19T11:22:59;4.07;;;3.00;;
5285;SDS011;2665;53.112;7.358;2023-06-19T11:25:37;4.90;;;3.10;;
5285;SDS011;2665;53.112;7.358;2023-06-19T11:28:10;6.47;;;3.73;;
5285;SDS011;2665;53.112;7.358;2023-06-19T11:30:38;6.20;;;3.80;;
5285;SDS011;2665;53.112;7.358;2023-06-19T11:33:14;7.67;;;4.00;;
5285;SDS011;2665;53.112;7.358;2023-06-19T11:35:47;5.93;;;3.80;;
5285;SDS011;2665;53.112;7.358;2023-06-19T11:38:20;4.30;;;3.57;;
5285;SDS011;2665;53.112;7.358;2023-06-19T11:40:47;5.10;;;4.13;;
5285;SDS011;2665;53.112;7.358;2023-06-19T11:46:05;5.27;;;3.87;;
5285;SDS011;2665;53.112;7.358;2023-06-19T11:48:32;5.57;;;3.60;;
5285;SDS011;2665;53.112;7.358;2023-06-19T11:51:01;4.43;;;3.73;;
5285;SDS011;2665;53.112;7.358;2023-06-19T11:53:27;5.20;;;4.13;;
5285;SDS011;2665;53.112;7.358;2023-06-19T11:55:53;4.23;;;3.40;;
5285;SDS011;2665;53.112;7.358;2023-06-19T11:58:19;4.90;;;3.07;;
5285;SDS011;2665;53.112;7.358;2023-06-19T12:00:45;3.20;;;2.80;;
5285;SDS011;2665;53.112;7.358;2023-06-19T12:03:11;4.90;;;3.27;;
5285;SDS011;2665;53.112;7.358;2023-06-19T12:05:37;3.07;;;2.77;;
5285;SDS011;2665;53.112;7.358;2023-06-19T12:08:03;10.30;;;3.80;;
5285;SDS011;2665;53.112;7.358;2023-06-19T12:10:29;3.80;;;3.10;;
5285;SDS011;2665;53.112;7.358;2023-06-19T12:12:55;5.67;;;4.00;;
5285;SDS011;2665;53.112;7.358;2023-06-19T12:15:21;6.37;;;3.90;;
5285;SDS011;2665;53.112;7.358;2023-06-19T12:17:48;5.03;;;3.73;;
5285;SDS011;2665;53.112;7.358;2023-06-19T12:20:14;4.37;;;3.27;;
5285;SDS011;2665;53.112;7.358;2023-06-19T12:22:39;4.63;;;3.37;;
5285;SDS011;2665;53.112;7.358;2023-06-19T12:25:06;5.33;;;2.90;;
5285;SDS011;2665;53.112;7.358;2023-06-19T12:27:31;3.27;;;2.90;;
5285;SDS011;2665;53.112;7.358;2023-06-19T12:29:57;5.43;;;2.63;;
5285;SDS011;2665;53.112;7.358;2023-06-19T12:32:23;3.87;;;2.97;;
5285;SDS011;2665;53.112;7.358;2023-06-19T12:34:49;6.33;;;3.13;;
5285;SDS011;2665;53.112;7.358;2023-06-19T12:37:18;3.23;;;2.37;;
5285;SDS011;2665;53.112;7.358;2023-06-19T12:39:45;5.00;;;2.90;;
5285;SDS011;2665;53.112;7.358;2023-06-19T12:42:11;4.80;;;3.10;;
5285;SDS011;2665;53.112;7.358;2023-06-19T12:44:40;3.50;;;2.77;;
5285;SDS011;2665;53.112;7.358;2023-06-19T12:47:07;3.10;;;2.77;;
5285;SDS011;2665;53.112;7.358;2023-06-19T12:49:33;3.70;;;2.67;;
5285;SDS011;2665;53.112;7.358;2023-06-19T12:51:59;3.60;;;3.10;;
5285;SDS011;2665;53.112;7.358;2023-06-19T12:54:25;4.00;;;2.90;;
5285;SDS011;2665;53.112;7.358;2023-06-19T12:56:51;3.90;;;3.40;;
5285;SDS011;2665;53.112;7.358;2023-06-19T12:59:16;5.27;;;2.93;;
5285;SDS011;2665;53.112;7.358;2023-06-19T13:01:42;3.60;;;3.23;;
5285;SDS011;2665;53.112;7.358;2023-06-19T13:04:09;6.40;;;3.40;;
5285;SDS011;2665;53.112;7.358;2023-06-19T13:06:36;3.57;;;3.20;;
5285;SDS011;2665;53.112;7.358;2023-06-19T13:09:02;3.80;;;3.40;;
5285;SDS011;2665;53.112;7.358;2023-06-19T13:11:29;4.20;;;2.97;;
5285;SDS011;2665;53.112;7.358;2023-06-19T13:13:55;5.00;;;2.97;;
5285;SDS011;2665;53.112;7.358;2023-06-19T13:16:21;4.10;;;3.50;;
5285;SDS011;2665;53.112;7.358;2023-06-19T13:18:49;4.80;;;3.07;;
5285;SDS011;2665;53.112;7.358;2023-06-19T13:21:14;4.40;;;3.70;;
5285;SDS011;2665;53.112;7.358;2023-06-19T13:23:40;5.30;;;3.17;;
5285;SDS011;2665;53.112;7.358;2023-06-19T13:26:06;3.10;;;2.80;;
5285;SDS011;2665;53.112;7.358;2023-06-19T13:28:32;4.90;;;3.30;;
5285;SDS011;2665;53.112;7.358;2023-06-19T13:30:57;8.80;;;3.97;;
5285;SDS011;2665;53.112;7.358;2023-06-19T13:33:23;4.60;;;3.10;;
5285;SDS011;2665;53.112;7.358;2023-06-19T13:35:48;5.80;;;3.17;;
5285;SDS011;2665;53.112;7.358;2023-06-19T13:38:14;5.70;;;2.70;;
5285;SDS011;2665;53.112;7.358;2023-06-19T13:40:40;4.60;;;3.73;;
5285;SDS011;2665;53.112;7.358;2023-06-19T13:43:06;3.73;;;3.27;;
5285;SDS011;2665;53.112;7.358;2023-06-19T13:45:32;5.03;;;3.67;;
5285;SDS011;2665;53.112;7.358;2023-06-19T13:47:59;5.30;;;3.13;;
5285;SDS011;2665;53.112;7.358;2023-06-19T13:50:27;7.70;;;3.67;;
5285;SDS011;2665;53.112;7.358;2023-06-19T13:52:52;5.40;;;3.20;;
5285;SDS011;2665;53.112;7.358;2023-06-19T13:55:19;4.30;;;2.90;;
5285;SDS011;2665;53.112;7.358;2023-06-19T13:57:45;4.60;;;3.23;;
5285;SDS011;2665;53.112;7.358;2023-06-19T14:00:11;4.37;;;2.57;;
5285;SDS011;2665;53.112;7.358;2023-06-19T14:02:38;4.23;;;3.20;;
5285;SDS011;2665;53.112;7.358;2023-06-19T14:05:06;4.87;;;3.10;;
5285;SDS011;2665;53.112;7.358;2023-06-19T14:07:33;4.67;;;3.20;;
5285;SDS011;2665;53.112;7.358;2023-06-19T14:10:00;5.57;;;3.13;;
5285;SDS011;2665;53.112;7.358;2023-06-19T14:12:26;4.33;;;2.90;;
5285;SDS011;2665;53.112;7.358;2023-06-19T14:14:52;3.90;;;3.37;;
5285;SDS011;2665;53.112;7.358;2023-06-19T14:17:17;5.10;;;3.17;;
5285;SDS011;2665;53.112;7.358;2023-06-19T14:19:43;4.20;;;2.80;;
5285;SDS011;2665;53.112;7.358;2023-06-19T14:22:08;3.90;;;2.63;;
5285;SDS011;2665;53.112;7.358;2023-06-19T14:24:34;5.63;;;3.80;;
5285;SDS011;2665;53.112;7.358;2023-06-19T14:26:59;4.03;;;3.20;;
5285;SDS011;2665;53.112;7.358;2023-06-19T14:29:25;3.37;;;2.97;;
5285;SDS011;2665;53.112;7.358;2023-06-19T14:31:51;4.20;;;2.60;;
5285;SDS011;2665;53.112;7.358;2023-06-19T14:34:17;4.80;;;2.80;;
5285;SDS011;2665;53.112;7.358;2023-06-19T14:36:43;5.27;;;3.03;;
5285;SDS011;2665;53.112;7.358;2023-06-19T14:39:09;5.87;;;3.27;;
5285;SDS011;2665;53.112;7.358;2023-06-19T14:41:36;3.37;;;3.07;;
5285;SDS011;2665;53.112;7.358;2023-06-19T14:44:02;4.60;;;2.30;;
5285;SDS011;2665;53.112;7.358;2023-06-19T14:46:29;4.23;;;2.90;;
5285;SDS011;2665;53.112;7.358;2023-06-19T14:48:56;7.13;;;3.17;;
5285;SDS011;2665;53.112;7.358;2023-06-19T14:51:23;3.30;;;2.50;;
5285;SDS011;2665;53.112;7.358;2023-06-19T14:53:49;3.20;;;2.50;;
5285;SDS011;2665;53.112;7.358;2023-06-19T14:56:15;3.13;;;2.37;;
5285;SDS011;2665;53.112;7.358;2023-06-19T14:58:41;6.00;;;3.20;;
5285;SDS011;2665;53.112;7.358;2023-06-19T15:01:07;3.53;;;2.70;;
5285;SDS011;2665;53.112;7.358;2023-06-19T15:03:33;3.60;;;2.70;;
5285;SDS011;2665;53.112;7.358;2023-06-19T15:05:59;4.87;;;3.07;;
5285;SDS011;2665;53.112;7.358;2023-06-19T15:08:25;3.73;;;3.20;;
5285;SDS011;2665;53.112;7.358;2023-06-19T15:10:51;4.57;;;3.00;;
5285;SDS011;2665;53.112;7.358;2023-06-19T15:13:16;3.43;;;2.67;;
5285;SDS011;2665;53.112;7.358;2023-06-19T15:15:42;4.90;;;2.60;;
5285;SDS011;2665;53.112;7.358;2023-06-19T15:18:09;4.50;;;3.10;;
5285;SDS011;2665;53.112;7.358;2023-06-19T15:20:34;4.40;;;2.70;;
5285;SDS011;2665;53.112;7.358;2023-06-19T15:23:00;4.37;;;3.53;;
5285;SDS011;2665;53.112;7.358;2023-06-19T15:25:26;3.33;;;2.73;;
5285;SDS011;2665;53.112;7.358;2023-06-19T15:27:51;3.80;;;2.93;;
5285;SDS011;2665;53.112;7.358;2023-06-19T15:30:17;3.30;;;2.97;;